McMechen, West Virginia
Current Conditions -  °F | °C
As of 6:53 AM on Friday 24 Oct 2014 (Local Time) from KHLG Reporting Station
Moderate Fog Moderate Fog  
Wind Chill: 32°   Ceiling: 200
Heat Index: 36°   Visibility: 0.25mi
Dew Point: 35°   Wind: 5mph
Humidity: 97%   Direction: 220°SW
Pressure: 30.11"   Gusts: NA
Location:  39.99°N, 80.73°W
Report Text: KHLG 241053Z 22004KT 1/4SM R03/2600VP6000FT FG VV002 02/02 A3011 RMK AO2 SLP205 T00220017
Loading
Personal Weather Stations






























Interactive Weather Map
Tropical Storm Tracking
New forecast layout! Learn more

10-Day Weather Forecast

Advertisements
Track Severe Weather on mobile